PWSweather.com
Personal Weather Stations
Station Observations
PENICUIKWS
PenicuikGB

PenicuikGB

Lat: 55.830932, Lon: -3.224533000000065

Elevation: 166

Station Type: Fine Offset

http://weather.penicuik.org

High Low Average
Temperature 42.3°F5.7°C 34.9°F1.6°C 38.3°F3.5°C
Dew Point 39.5°F4.2°C 30.7°F-0.7°C 35.2°F1.8°C
Winds 1.7 mph 2.7 kmh Calm Calm Calm ESECalm ESE
Wind Gusts 4.5 mph7.2 kmh -- 1.0 mph1.6 kmh
Humidity 93% 82% 88%
Pressure 29.89 in1012.2 mb 29.52 in999.7 mb -
Precipitation 0.00 in0.0 mm - -
Hour Temp Dew Point Humidity Winds Wind Gusts Pressure Precip Precip Rate Daily Precip Total
12:00 AM 35.6°F2.0°C 30.7°F-0.7°C 82% 0.1 mph N0.2 kmh N 0.7 mph1.1 kmh 29.54 in1000.3 mb 0.00 in0.0 mm 0.00 in0.0 mm 0.00 in0.0 mm
12:15 AM 35.4°F1.9°C 31.1°F-0.5°C 84% 0.6 mph N1.0 kmh N 1.6 mph2.6 kmh 29.54 in1000.3 mb 0.00 in0.0 mm 0.00 in0.0 mm 0.00 in0.0 mm
12:30 AM 35.4°F1.9°C 31.1°F-0.5°C 84% Calm Calm -- 29.53 in1000.0 mb 0.00 in0.0 mm 0.00 in0.0 mm 0.00 in0.0 mm
12:45 AM 35.4°F1.9°C 31.1°F-0.5°C 84% Calm Calm -- 29.54 in1000.3 mb 0.00 in0.0 mm 0.00 in0.0 mm 0.00 in0.0 mm
01:00 AM 35.4°F1.9°C 31.1°F-0.5°C 84% 0.2 mph S0.3 kmh S 1.6 mph2.6 kmh 29.54 in1000.3 mb 0.00 in0.0 mm 0.00 in0.0 mm 0.00 in0.0 mm
01:15 AM 35.4°F1.9°C 31.1°F-0.5°C 84% 0.9 mph S1.4 kmh S 1.6 mph2.6 kmh 29.54 in1000.3 mb 0.00 in0.0 mm 0.00 in0.0 mm 0.00 in0.0 mm
01:30 AM 35.4°F1.9°C 31.4°F-0.3°C 85% 0.2 mph S0.3 kmh S 0.7 mph1.1 kmh 29.54 in1000.3 mb 0.00 in0.0 mm 0.00 in0.0 mm 0.00 in0.0 mm
01:45 AM 35.4°F1.9°C 31.4°F-0.3°C 85% 0.4 mph S0.6 kmh S 1.6 mph2.6 kmh 29.53 in1000.0 mb 0.00 in0.0 mm 0.00 in0.0 mm 0.00 in0.0 mm
02:00 AM 35.4°F1.9°C 31.4°F-0.3°C 85% 0.3 mph NE0.5 kmh NE 1.6 mph2.6 kmh 29.54 in1000.3 mb 0.00 in0.0 mm 0.00 in0.0 mm 0.00 in0.0 mm
02:15 AM 35.6°F2.0°C 31.3°F-0.4°C 84% 0.5 mph S0.8 kmh S 1.6 mph2.6 kmh 29.53 in1000.0 mb 0.00 in0.0 mm 0.00 in0.0 mm 0.00 in0.0 mm
02:30 AM 35.2°F1.8°C 31.5°F-0.3°C 86% Calm Calm -- 29.53 in1000.0 mb 0.00 in0.0 mm 0.00 in0.0 mm 0.00 in0.0 mm
02:45 AM 35.1°F1.7°C 31.3°F-0.4°C 86% 0.5 mph SW0.8 kmh SW 1.6 mph2.6 kmh 29.54 in1000.3 mb 0.00 in0.0 mm 0.00 in0.0 mm 0.00 in0.0 mm
03:00 AM 34.9°F1.6°C 31.1°F-0.5°C 86% 0.6 mph S1.0 kmh S 4.5 mph7.2 kmh 29.52 in999.7 mb 0.00 in0.0 mm 0.00 in0.0 mm 0.00 in0.0 mm
03:15 AM 35.4°F1.9°C 31.9°F-0.1°C 87% 0.9 mph NE1.4 kmh NE 2.2 mph3.5 kmh 29.53 in1000.0 mb 0.00 in0.0 mm 0.00 in0.0 mm 0.00 in0.0 mm
03:30 AM 35.6°F2.0°C 31.8°F-0.1°C 86% 0.6 mph S1.0 kmh S 1.6 mph2.6 kmh 29.53 in1000.0 mb 0.00 in0.0 mm 0.00 in0.0 mm 0.00 in0.0 mm
03:45 AM 35.8°F2.1°C 32.0°F0.0°C 86% 1.1 mph SW1.8 kmh SW 1.6 mph2.6 kmh 29.53 in1000.0 mb 0.00 in0.0 mm 0.00 in0.0 mm 0.00 in0.0 mm
04:00 AM 36.5°F2.5°C 33.0°F0.6°C 87% 0.7 mph W1.1 kmh W 2.2 mph3.5 kmh 29.54 in1000.3 mb 0.00 in0.0 mm 0.00 in0.0 mm 0.00 in0.0 mm
04:15 AM 37.2°F2.9°C 33.7°F0.9°C 87% 0.5 mph N0.8 kmh N 2.2 mph3.5 kmh 29.55 in1000.7 mb 0.00 in0.0 mm 0.00 in0.0 mm 0.00 in0.0 mm
04:30 AM 38.5°F3.6°C 36.4°F2.4°C 92% 1.2 mph N1.9 kmh N 2.2 mph3.5 kmh 29.55 in1000.7 mb 0.00 in0.0 mm 0.00 in0.0 mm 0.00 in0.0 mm
04:45 AM 38.8°F3.8°C 36.7°F2.6°C 92% 1.4 mph NNW2.3 kmh NNW 2.2 mph3.5 kmh 29.55 in1000.7 mb 0.00 in0.0 mm 0.00 in0.0 mm 0.00 in0.0 mm
05:00 AM 38.3°F3.5°C 36.2°F2.3°C 92% 0.5 mph N0.8 kmh N 2.2 mph3.5 kmh 29.56 in1001.0 mb 0.00 in0.0 mm 0.00 in0.0 mm 0.00 in0.0 mm
05:15 AM 38.1°F3.4°C 36.0°F2.2°C 92% Calm Calm -- 29.56 in1001.0 mb 0.00 in0.0 mm 0.00 in0.0 mm 0.00 in0.0 mm
05:30 AM 38.1°F3.4°C 36.0°F2.2°C 92% 0.7 mph NNW1.1 kmh NNW 1.6 mph2.6 kmh 29.56 in1001.0 mb 0.00 in0.0 mm 0.00 in0.0 mm 0.00 in0.0 mm
05:45 AM 38.3°F3.5°C 36.2°F2.3°C 92% 0.4 mph S0.6 kmh S 2.2 mph3.5 kmh 29.56 in1001.0 mb 0.00 in0.0 mm 0.00 in0.0 mm 0.00 in0.0 mm
06:00 AM 38.3°F3.5°C 36.2°F2.3°C 92% 0.2 mph S0.3 kmh S 0.7 mph1.1 kmh 29.57 in1001.4 mb 0.00 in0.0 mm 0.00 in0.0 mm 0.00 in0.0 mm
06:15 AM 38.3°F3.5°C 36.2°F2.3°C 92% 0.2 mph S0.3 kmh S 0.7 mph1.1 kmh 29.57 in1001.4 mb 0.00 in0.0 mm 0.00 in0.0 mm 0.00 in0.0 mm
06:30 AM 38.3°F3.5°C 36.2°F2.3°C 92% 0.8 mph S1.3 kmh S 1.6 mph2.6 kmh 29.57 in1001.4 mb 0.00 in0.0 mm 0.00 in0.0 mm 0.00 in0.0 mm
06:45 AM 38.5°F3.6°C 36.4°F2.4°C 92% 0.4 mph SSW0.6 kmh SSW 1.6 mph2.6 kmh 29.58 in1001.7 mb 0.00 in0.0 mm 0.00 in0.0 mm 0.00 in0.0 mm
07:00 AM 38.3°F3.5°C 36.2°F2.3°C 92% 0.4 mph SW0.6 kmh SW 1.6 mph2.6 kmh 29.58 in1001.7 mb 0.00 in0.0 mm 0.00 in0.0 mm 0.00 in0.0 mm
07:15 AM 38.3°F3.5°C 36.2°F2.3°C 92% 0.4 mph S0.6 kmh S 1.6 mph2.6 kmh 29.58 in1001.7 mb 0.00 in0.0 mm 0.00 in0.0 mm 0.00 in0.0 mm
07:30 AM 38.1°F3.4°C 36.0°F2.2°C 92% 0.4 mph SW0.6 kmh SW 1.6 mph2.6 kmh 29.59 in1002.0 mb 0.00 in0.0 mm 0.00 in0.0 mm 0.00 in0.0 mm
07:45 AM 38.1°F3.4°C 36.0°F2.2°C 92% Calm Calm -- 29.59 in1002.0 mb 0.00 in0.0 mm 0.00 in0.0 mm 0.00 in0.0 mm
08:00 AM 38.3°F3.5°C 36.2°F2.3°C 92% Calm Calm 0.7 mph1.1 kmh 29.60 in1002.4 mb 0.00 in0.0 mm 0.00 in0.0 mm 0.00 in0.0 mm
08:15 AM 38.1°F3.4°C 36.0°F2.2°C 92% Calm Calm -- 29.62 in1003.0 mb 0.00 in0.0 mm 0.00 in0.0 mm 0.00 in0.0 mm
08:30 AM 38.3°F3.5°C 36.2°F2.3°C 92% 0.3 mph SW0.5 kmh SW 1.6 mph2.6 kmh 29.62 in1003.0 mb 0.00 in0.0 mm 0.00 in0.0 mm 0.00 in0.0 mm
08:45 AM 38.3°F3.5°C 36.2°F2.3°C 92% Calm Calm 0.7 mph1.1 kmh 29.62 in1003.0 mb 0.00 in0.0 mm 0.00 in0.0 mm 0.00 in0.0 mm
09:00 AM 38.3°F3.5°C 36.2°F2.3°C 92% Calm Calm -- 29.63 in1003.4 mb 0.00 in0.0 mm 0.00 in0.0 mm 0.00 in0.0 mm
09:15 AM 38.5°F3.6°C 36.4°F2.4°C 92% 0.9 mph SSW1.4 kmh SSW 1.6 mph2.6 kmh 29.63 in1003.4 mb 0.00 in0.0 mm 0.00 in0.0 mm 0.00 in0.0 mm
09:45 AM 38.7°F3.7°C 36.8°F2.7°C 93% Calm Calm -- 29.65 in1004.1 mb 0.00 in0.0 mm 0.00 in0.0 mm 0.00 in0.0 mm
10:00 AM 38.8°F3.8°C 37.0°F2.8°C 93% Calm Calm -- 29.65 in1004.1 mb 0.00 in0.0 mm 0.00 in0.0 mm 0.00 in0.0 mm
10:15 AM 39.2°F4.0°C 37.1°F2.8°C 92% Calm Calm -- 29.65 in1004.1 mb 0.00 in0.0 mm 0.00 in0.0 mm 0.00 in0.0 mm
10:30 AM 39.2°F4.0°C 37.1°F2.8°C 92% Calm Calm -- 29.65 in1004.1 mb 0.00 in0.0 mm 0.00 in0.0 mm 0.00 in0.0 mm
10:45 AM 40.1°F4.5°C 38.0°F3.3°C 92% Calm Calm -- 29.66 in1004.4 mb 0.00 in0.0 mm 0.00 in0.0 mm 0.00 in0.0 mm
11:00 AM 40.3°F4.6°C 38.1°F3.4°C 92% Calm Calm -- 29.65 in1004.1 mb 0.00 in0.0 mm 0.00 in0.0 mm 0.00 in0.0 mm
11:15 AM 41.0°F5.0°C 38.6°F3.7°C 91% Calm Calm -- 29.67 in1004.7 mb 0.00 in0.0 mm 0.00 in0.0 mm 0.00 in0.0 mm
11:30 AM 41.0°F5.0°C 38.6°F3.7°C 91% 0.1 mph S0.2 kmh S 0.7 mph1.1 kmh 29.68 in1005.1 mb 0.00 in0.0 mm 0.00 in0.0 mm 0.00 in0.0 mm
11:45 AM 41.4°F5.2°C 38.9°F3.8°C 91% 0.1 mph N0.2 kmh N 0.7 mph1.1 kmh 29.68 in1005.1 mb 0.00 in0.0 mm 0.00 in0.0 mm 0.00 in0.0 mm
12:00 PM 41.5°F5.3°C 39.1°F3.9°C 91% 0.2 mph WSW0.3 kmh WSW 1.6 mph2.6 kmh 29.67 in1004.7 mb 0.00 in0.0 mm 0.00 in0.0 mm 0.00 in0.0 mm
12:15 PM 41.5°F5.3°C 39.1°F3.9°C 91% 0.5 mph NE0.8 kmh NE 2.2 mph3.5 kmh 29.67 in1004.7 mb 0.00 in0.0 mm 0.00 in0.0 mm 0.00 in0.0 mm
12:30 PM 41.9°F5.5°C 39.5°F4.2°C 91% 0.6 mph WSW1.0 kmh WSW 2.2 mph3.5 kmh 29.67 in1004.7 mb 0.00 in0.0 mm 0.00 in0.0 mm 0.00 in0.0 mm
12:45 PM 42.1°F5.6°C 39.4°F4.1°C 90% 0.8 mph NNE1.3 kmh NNE 1.6 mph2.6 kmh 29.67 in1004.7 mb 0.00 in0.0 mm 0.00 in0.0 mm 0.00 in0.0 mm
01:00 PM 42.1°F5.6°C 39.1°F3.9°C 89% 0.3 mph NE0.5 kmh NE 1.6 mph2.6 kmh 29.68 in1005.1 mb 0.00 in0.0 mm 0.00 in0.0 mm 0.00 in0.0 mm
01:15 PM 42.3°F5.7°C 39.0°F3.9°C 88% Calm Calm -- 29.67 in1004.7 mb 0.00 in0.0 mm 0.00 in0.0 mm 0.00 in0.0 mm
01:30 PM 42.1°F5.6°C 38.5°F3.6°C 87% 0.2 mph NW0.3 kmh NW 1.6 mph2.6 kmh 29.67 in1004.7 mb 0.00 in0.0 mm 0.00 in0.0 mm 0.00 in0.0 mm
01:45 PM 42.1°F5.6°C 38.2°F3.4°C 86% Calm Calm -- 29.67 in1004.7 mb 0.00 in0.0 mm 0.00 in0.0 mm 0.00 in0.0 mm
02:00 PM 42.1°F5.6°C 38.2°F3.4°C 86% 0.1 mph SW0.2 kmh SW 0.7 mph1.1 kmh 29.68 in1005.1 mb 0.00 in0.0 mm 0.00 in0.0 mm 0.00 in0.0 mm
02:15 PM 41.9°F5.5°C 37.7°F3.2°C 85% 0.4 mph NNE0.6 kmh NNE 1.6 mph2.6 kmh 29.69 in1005.4 mb 0.00 in0.0 mm 0.00 in0.0 mm 0.00 in0.0 mm
02:30 PM 41.7°F5.4°C 37.2°F2.9°C 84% 0.4 mph NE0.6 kmh NE 1.6 mph2.6 kmh 29.69 in1005.4 mb 0.00 in0.0 mm 0.00 in0.0 mm 0.00 in0.0 mm
02:45 PM 41.5°F5.3°C 37.1°F2.8°C 84% 0.5 mph N0.8 kmh N 1.6 mph2.6 kmh 29.70 in1005.8 mb 0.00 in0.0 mm 0.00 in0.0 mm 0.00 in0.0 mm
03:15 PM 41.4°F5.2°C 36.9°F2.7°C 84% Calm Calm -- 29.71 in1006.1 mb 0.00 in0.0 mm 0.00 in0.0 mm 0.00 in0.0 mm
03:30 PM 41.2°F5.1°C 36.7°F2.6°C 84% 0.4 mph NE0.6 kmh NE 1.6 mph2.6 kmh 29.72 in1006.4 mb 0.00 in0.0 mm 0.00 in0.0 mm 0.00 in0.0 mm
03:45 PM 40.5°F4.7°C 36.3°F2.4°C 85% Calm Calm -- 29.73 in1006.8 mb 0.00 in0.0 mm 0.00 in0.0 mm 0.00 in0.0 mm
04:00 PM 39.9°F4.4°C 35.8°F2.1°C 85% 0.1 mph S0.2 kmh S 0.7 mph1.1 kmh 29.73 in1006.8 mb 0.00 in0.0 mm 0.00 in0.0 mm 0.00 in0.0 mm
04:15 PM 39.9°F4.4°C 35.8°F2.1°C 85% 0.3 mph NNE0.5 kmh NNE 1.6 mph2.6 kmh 29.73 in1006.8 mb 0.00 in0.0 mm 0.00 in0.0 mm 0.00 in0.0 mm
04:30 PM 39.2°F4.0°C 35.4°F1.9°C 86% 0.1 mph NE0.2 kmh NE 0.7 mph1.1 kmh 29.74 in1007.1 mb 0.00 in0.0 mm 0.00 in0.0 mm 0.00 in0.0 mm
04:45 PM 39.0°F3.9°C 35.5°F1.9°C 87% Calm Calm -- 29.75 in1007.5 mb 0.00 in0.0 mm 0.00 in0.0 mm 0.00 in0.0 mm
05:00 PM 39.0°F3.9°C 35.8°F2.1°C 88% Calm Calm -- 29.75 in1007.5 mb 0.00 in0.0 mm 0.00 in0.0 mm 0.00 in0.0 mm
05:15 PM 39.0°F3.9°C 35.8°F2.1°C 88% Calm Calm -- 29.75 in1007.5 mb 0.00 in0.0 mm 0.00 in0.0 mm 0.00 in0.0 mm
05:30 PM 38.7°F3.7°C 35.4°F1.9°C 88% Calm Calm -- 29.76 in1007.8 mb 0.00 in0.0 mm 0.00 in0.0 mm 0.00 in0.0 mm
05:45 PM 38.5°F3.6°C 35.2°F1.8°C 88% Calm Calm -- 29.76 in1007.8 mb 0.00 in0.0 mm 0.00 in0.0 mm 0.00 in0.0 mm
06:00 PM 38.5°F3.6°C 35.5°F1.9°C 89% Calm Calm -- 29.78 in1008.5 mb 0.00 in0.0 mm 0.00 in0.0 mm 0.00 in0.0 mm
06:45 PM 38.1°F3.4°C 35.2°F1.8°C 89% Calm Calm -- 29.78 in1008.5 mb 0.00 in0.0 mm 0.00 in0.0 mm 0.00 in0.0 mm
07:00 PM 38.1°F3.4°C 35.2°F1.8°C 89% Calm Calm -- 29.79 in1008.8 mb 0.00 in0.0 mm 0.00 in0.0 mm 0.00 in0.0 mm
07:15 PM 38.1°F3.4°C 35.2°F1.8°C 89% 0.5 mph SE0.8 kmh SE 1.6 mph2.6 kmh 29.79 in1008.8 mb 0.00 in0.0 mm 0.00 in0.0 mm 0.00 in0.0 mm
07:30 PM 37.9°F3.3°C 35.3°F1.8°C 90% 0.4 mph S0.6 kmh S 1.6 mph2.6 kmh 29.80 in1009.1 mb 0.00 in0.0 mm 0.00 in0.0 mm 0.00 in0.0 mm
07:45 PM 37.8°F3.2°C 35.1°F1.7°C 90% 0.3 mph SSE0.5 kmh SSE 0.7 mph1.1 kmh 29.81 in1009.5 mb 0.00 in0.0 mm 0.00 in0.0 mm 0.00 in0.0 mm
08:00 PM 37.8°F3.2°C 35.1°F1.7°C 90% Calm Calm -- 29.81 in1009.5 mb 0.00 in0.0 mm 0.00 in0.0 mm 0.00 in0.0 mm
08:15 PM 37.6°F3.1°C 34.9°F1.6°C 90% Calm Calm -- 29.82 in1009.8 mb 0.00 in0.0 mm 0.00 in0.0 mm 0.00 in0.0 mm
08:30 PM 37.6°F3.1°C 34.9°F1.6°C 90% 0.2 mph SSW0.3 kmh SSW 0.7 mph1.1 kmh 29.83 in1010.2 mb 0.00 in0.0 mm 0.00 in0.0 mm 0.00 in0.0 mm
08:45 PM 37.6°F3.1°C 34.9°F1.6°C 90% 1.7 mph SE2.7 kmh SE 2.2 mph3.5 kmh 29.83 in1010.2 mb 0.00 in0.0 mm 0.00 in0.0 mm 0.00 in0.0 mm
09:00 PM 37.6°F3.1°C 34.9°F1.6°C 90% 0.7 mph SE1.1 kmh SE 1.6 mph2.6 kmh 29.84 in1010.5 mb 0.00 in0.0 mm 0.00 in0.0 mm 0.00 in0.0 mm
09:30 PM 36.9°F2.7°C 33.1°F0.6°C 86% 0.4 mph NW0.6 kmh NW 1.6 mph2.6 kmh 29.84 in1010.5 mb 0.00 in0.0 mm 0.00 in0.0 mm 0.00 in0.0 mm
09:45 PM 36.9°F2.7°C 33.1°F0.6°C 86% 0.1 mph N0.2 kmh N 0.7 mph1.1 kmh 29.86 in1011.2 mb 0.00 in0.0 mm 0.00 in0.0 mm 0.00 in0.0 mm
10:00 PM 36.7°F2.6°C 32.9°F0.5°C 86% 0.2 mph WSW0.3 kmh WSW 0.7 mph1.1 kmh 29.86 in1011.2 mb 0.00 in0.0 mm 0.00 in0.0 mm 0.00 in0.0 mm
10:15 PM 36.5°F2.5°C 32.7°F0.4°C 86% 0.4 mph S0.6 kmh S 2.2 mph3.5 kmh 29.86 in1011.2 mb 0.00 in0.0 mm 0.00 in0.0 mm 0.00 in0.0 mm
10:30 PM 36.3°F2.4°C 32.5°F0.3°C 86% 0.5 mph SSW0.8 kmh SSW 1.6 mph2.6 kmh 29.87 in1011.5 mb 0.00 in0.0 mm 0.00 in0.0 mm 0.00 in0.0 mm
10:45 PM 36.3°F2.4°C 32.5°F0.3°C 86% 0.1 mph S0.2 kmh S 0.7 mph1.1 kmh 29.87 in1011.5 mb 0.00 in0.0 mm 0.00 in0.0 mm 0.00 in0.0 mm
11:00 PM 36.1°F2.3°C 32.4°F0.2°C 86% 0.4 mph NW0.6 kmh NW 1.6 mph2.6 kmh 29.88 in1011.9 mb 0.00 in0.0 mm 0.00 in0.0 mm 0.00 in0.0 mm
11:15 PM 36.3°F2.4°C 32.5°F0.3°C 86% 0.4 mph NW0.6 kmh NW 1.6 mph2.6 kmh 29.89 in1012.2 mb 0.00 in0.0 mm 0.00 in0.0 mm 0.00 in0.0 mm
11:30 PM 36.1°F2.3°C 32.4°F0.2°C 86% 0.5 mph W0.8 kmh W 1.6 mph2.6 kmh 29.89 in1012.2 mb 0.00 in0.0 mm 0.00 in0.0 mm 0.00 in0.0 mm
11:45 PM 36.3°F2.4°C 32.5°F0.3°C 86% 0.4 mph SW0.6 kmh SW 1.6 mph2.6 kmh 29.89 in1012.2 mb 0.00 in0.0 mm 0.00 in0.0 mm 0.00 in0.0 mm